sensor_id;sensor_type;location;lat;lon;timestamp;temperature;humidity
6252;DHT22;3159;52.414;9.784;2023-03-08T00:00:08;1.30;99.90
6252;DHT22;3159;52.414;9.784;2023-03-08T00:02:35;1.20;99.90
6252;DHT22;3159;52.414;9.784;2023-03-08T00:05:02;1.40;99.90
6252;DHT22;3159;52.414;9.784;2023-03-08T00:07:30;1.30;99.90
6252;DHT22;3159;52.414;9.784;2023-03-08T00:09:57;1.40;99.90
6252;DHT22;3159;52.414;9.784;2023-03-08T00:12:24;1.40;99.90
6252;DHT22;3159;52.414;9.784;2023-03-08T00:14:52;1.50;99.90
6252;DHT22;3159;52.414;9.784;2023-03-08T00:17:19;1.40;99.90
6252;DHT22;3159;52.414;9.784;2023-03-08T00:19:46;1.40;99.90
6252;DHT22;3159;52.414;9.784;2023-03-08T00:22:12;1.30;99.90
6252;DHT22;3159;52.414;9.784;2023-03-08T00:24:39;1.30;99.90
6252;DHT22;3159;52.414;9.784;2023-03-08T00:27:06;1.30;99.90
6252;DHT22;3159;52.414;9.784;2023-03-08T00:29:33;1.30;99.90
6252;DHT22;3159;52.414;9.784;2023-03-08T00:32:01;1.20;99.90
6252;DHT22;3159;52.414;9.784;2023-03-08T00:34:28;1.30;99.90
6252;DHT22;3159;52.414;9.784;2023-03-08T00:36:55;1.30;99.90
6252;DHT22;3159;52.414;9.784;2023-03-08T00:39:22;1.30;99.90
6252;DHT22;3159;52.414;9.784;2023-03-08T00:41:48;1.20;99.90
6252;DHT22;3159;52.414;9.784;2023-03-08T00:44:15;1.30;99.90
6252;DHT22;3159;52.414;9.784;2023-03-08T00:46:42;1.40;99.90
6252;DHT22;3159;52.414;9.784;2023-03-08T00:49:12;1.40;99.90
6252;DHT22;3159;52.414;9.784;2023-03-08T00:51:38;1.30;99.90
6252;DHT22;3159;52.414;9.784;2023-03-08T00:54:05;1.20;99.90
6252;DHT22;3159;52.414;9.784;2023-03-08T00:56:32;1.30;99.90
6252;DHT22;3159;52.414;9.784;2023-03-08T00:58:59;1.20;99.90
6252;DHT22;3159;52.414;9.784;2023-03-08T01:01:25;1.30;99.90
6252;DHT22;3159;52.414;9.784;2023-03-08T01:03:52;1.30;99.90
6252;DHT22;3159;52.414;9.784;2023-03-08T01:06:20;1.30;99.90
6252;DHT22;3159;52.414;9.784;2023-03-08T01:08:47;1.20;99.90
6252;DHT22;3159;52.414;9.784;2023-03-08T01:11:16;1.30;99.90
6252;DHT22;3159;52.414;9.784;2023-03-08T01:13:43;1.30;99.90
6252;DHT22;3159;52.414;9.784;2023-03-08T01:16:15;1.30;99.90
6252;DHT22;3159;52.414;9.784;2023-03-08T01:18:42;1.20;99.90
6252;DHT22;3159;52.414;9.784;2023-03-08T01:21:09;1.30;99.90
6252;DHT22;3159;52.414;9.784;2023-03-08T01:23:38;1.30;99.90
6252;DHT22;3159;52.414;9.784;2023-03-08T01:26:07;1.20;99.90
6252;DHT22;3159;52.414;9.784;2023-03-08T01:28:34;1.20;99.90
6252;DHT22;3159;52.414;9.784;2023-03-08T01:31:02;1.20;99.90
6252;DHT22;3159;52.414;9.784;2023-03-08T01:33:29;1.20;99.90
6252;DHT22;3159;52.414;9.784;2023-03-08T01:35:56;1.20;99.90
6252;DHT22;3159;52.414;9.784;2023-03-08T01:38:24;1.20;99.90
6252;DHT22;3159;52.414;9.784;2023-03-08T01:40:56;1.20;99.90
6252;DHT22;3159;52.414;9.784;2023-03-08T01:43:25;1.20;99.90
6252;DHT22;3159;52.414;9.784;2023-03-08T01:46:04;1.20;99.90
6252;DHT22;3159;52.414;9.784;2023-03-08T01:48:34;1.30;99.90
6252;DHT22;3159;52.414;9.784;2023-03-08T01:51:03;1.30;99.90
6252;DHT22;3159;52.414;9.784;2023-03-08T01:53:31;1.30;99.90
6252;DHT22;3159;52.414;9.784;2023-03-08T01:56:00;1.30;99.90
6252;DHT22;3159;52.414;9.784;2023-03-08T01:58:27;1.30;99.90
6252;DHT22;3159;52.414;9.784;2023-03-08T02:00:54;1.30;99.90
6252;DHT22;3159;52.414;9.784;2023-03-08T02:03:21;1.30;99.90
6252;DHT22;3159;52.414;9.784;2023-03-08T02:05:48;1.30;99.90
6252;DHT22;3159;52.414;9.784;2023-03-08T02:08:15;1.30;99.90
6252;DHT22;3159;52.414;9.784;2023-03-08T02:10:42;1.20;99.90
6252;DHT22;3159;52.414;9.784;2023-03-08T02:13:11;1.20;99.90
6252;DHT22;3159;52.414;9.784;2023-03-08T02:15:38;1.20;99.90
6252;DHT22;3159;52.414;9.784;2023-03-08T02:18:05;1.30;99.90
6252;DHT22;3159;52.414;9.784;2023-03-08T02:20:34;1.30;99.90
6252;DHT22;3159;52.414;9.784;2023-03-08T02:23:10;1.20;99.90
6252;DHT22;3159;52.414;9.784;2023-03-08T02:25:37;1.20;99.90
6252;DHT22;3159;52.414;9.784;2023-03-08T02:28:05;1.20;99.90
6252;DHT22;3159;52.414;9.784;2023-03-08T02:30:35;1.20;99.90
6252;DHT22;3159;52.414;9.784;2023-03-08T02:33:02;1.20;99.90
6252;DHT22;3159;52.414;9.784;2023-03-08T02:35:29;1.20;99.90
6252;DHT22;3159;52.414;9.784;2023-03-08T02:37:56;1.30;99.90
6252;DHT22;3159;52.414;9.784;2023-03-08T02:40:24;1.30;99.90
6252;DHT22;3159;52.414;9.784;2023-03-08T02:42:51;1.40;99.90
6252;DHT22;3159;52.414;9.784;2023-03-08T02:45:20;1.40;99.90
6252;DHT22;3159;52.414;9.784;2023-03-08T02:47:47;1.50;99.90
6252;DHT22;3159;52.414;9.784;2023-03-08T02:50:14;1.50;99.90
6252;DHT22;3159;52.414;9.784;2023-03-08T02:52:41;1.40;99.90
6252;DHT22;3159;52.414;9.784;2023-03-08T02:55:08;1.40;99.90
6252;DHT22;3159;52.414;9.784;2023-03-08T02:57:36;1.30;99.90
6252;DHT22;3159;52.414;9.784;2023-03-08T03:00:04;1.20;99.90
6252;DHT22;3159;52.414;9.784;2023-03-08T03:02:31;1.30;99.90
6252;DHT22;3159;52.414;9.784;2023-03-08T03:04:58;1.30;99.90
6252;DHT22;3159;52.414;9.784;2023-03-08T03:07:25;1.20;99.90
6252;DHT22;3159;52.414;9.784;2023-03-08T03:09:53;1.20;99.90
6252;DHT22;3159;52.414;9.784;2023-03-08T03:12:20;1.20;99.90
6252;DHT22;3159;52.414;9.784;2023-03-08T03:14:48;1.20;99.90
6252;DHT22;3159;52.414;9.784;2023-03-08T03:17:15;1.20;99.90
6252;DHT22;3159;52.414;9.784;2023-03-08T03:19:41;1.10;99.90
6252;DHT22;3159;52.414;9.784;2023-03-08T03:22:08;1.10;99.90
6252;DHT22;3159;52.414;9.784;2023-03-08T03:24:35;1.20;99.90
6252;DHT22;3159;52.414;9.784;2023-03-08T03:27:02;1.30;99.90
6252;DHT22;3159;52.414;9.784;2023-03-08T03:29:29;1.30;99.90
6252;DHT22;3159;52.414;9.784;2023-03-08T03:31:57;1.10;99.90
6252;DHT22;3159;52.414;9.784;2023-03-08T03:34:24;1.40;99.90
6252;DHT22;3159;52.414;9.784;2023-03-08T03:36:50;1.40;99.90
6252;DHT22;3159;52.414;9.784;2023-03-08T03:39:17;1.30;99.90
6252;DHT22;3159;52.414;9.784;2023-03-08T03:41:44;1.30;99.90
6252;DHT22;3159;52.414;9.784;2023-03-08T03:44:11;1.30;99.90
6252;DHT22;3159;52.414;9.784;2023-03-08T03:46:37;1.30;99.90
6252;DHT22;3159;52.414;9.784;2023-03-08T03:49:06;1.20;99.90
6252;DHT22;3159;52.414;9.784;2023-03-08T03:51:32;1.20;99.90
6252;DHT22;3159;52.414;9.784;2023-03-08T03:53:59;1.20;99.90
6252;DHT22;3159;52.414;9.784;2023-03-08T03:56:27;1.20;99.90
6252;DHT22;3159;52.414;9.784;2023-03-08T03:58:53;1.20;99.90
6252;DHT22;3159;52.414;9.784;2023-03-08T04:01:22;1.10;99.90
6252;DHT22;3159;52.414;9.784;2023-03-08T04:03:50;1.10;99.90
6252;DHT22;3159;52.414;9.784;2023-03-08T04:06:20;1.00;99.90
6252;DHT22;3159;52.414;9.784;2023-03-08T04:08:48;1.00;99.90
6252;DHT22;3159;52.414;9.784;2023-03-08T04:11:17;0.90;99.90
6252;DHT22;3159;52.414;9.784;2023-03-08T04:13:44;1.00;99.90
6252;DHT22;3159;52.414;9.784;2023-03-08T04:16:12;0.90;99.90
6252;DHT22;3159;52.414;9.784;2023-03-08T04:18:40;1.00;99.90
6252;DHT22;3159;52.414;9.784;2023-03-08T04:21:07;1.00;99.90
6252;DHT22;3159;52.414;9.784;2023-03-08T04:23:35;1.00;99.90
6252;DHT22;3159;52.414;9.784;2023-03-08T04:26:03;0.90;99.90
6252;DHT22;3159;52.414;9.784;2023-03-08T04:28:30;0.90;99.90
6252;DHT22;3159;52.414;9.784;2023-03-08T04:30:58;0.90;99.90
6252;DHT22;3159;52.414;9.784;2023-03-08T04:33:25;0.90;99.90
6252;DHT22;3159;52.414;9.784;2023-03-08T04:35:52;1.00;99.90
6252;DHT22;3159;52.414;9.784;2023-03-08T04:38:19;1.10;99.90
6252;DHT22;3159;52.414;9.784;2023-03-08T04:40:48;1.10;99.90
6252;DHT22;3159;52.414;9.784;2023-03-08T04:43:30;1.00;99.90
6252;DHT22;3159;52.414;9.784;2023-03-08T04:45:57;1.20;99.90
6252;DHT22;3159;52.414;9.784;2023-03-08T04:48:23;1.20;99.90
6252;DHT22;3159;52.414;9.784;2023-03-08T04:50:51;1.30;99.90
6252;DHT22;3159;52.414;9.784;2023-03-08T04:53:18;1.20;99.90
6252;DHT22;3159;52.414;9.784;2023-03-08T04:55:46;1.40;99.90
6252;DHT22;3159;52.414;9.784;2023-03-08T04:58:13;1.50;99.90
6252;DHT22;3159;52.414;9.784;2023-03-08T05:00:40;1.60;99.90
6252;DHT22;3159;52.414;9.784;2023-03-08T05:03:07;1.70;99.90
6252;DHT22;3159;52.414;9.784;2023-03-08T05:05:34;1.80;99.90
6252;DHT22;3159;52.414;9.784;2023-03-08T05:08:01;1.60;99.90
6252;DHT22;3159;52.414;9.784;2023-03-08T05:10:29;1.60;99.90
6252;DHT22;3159;52.414;9.784;2023-03-08T05:12:57;1.50;99.90
6252;DHT22;3159;52.414;9.784;2023-03-08T05:15:25;1.50;99.90
6252;DHT22;3159;52.414;9.784;2023-03-08T05:17:52;1.50;99.90
6252;DHT22;3159;52.414;9.784;2023-03-08T05:20:19;1.70;99.90
6252;DHT22;3159;52.414;9.784;2023-03-08T05:22:46;1.70;99.90
6252;DHT22;3159;52.414;9.784;2023-03-08T05:25:13;1.70;99.90
6252;DHT22;3159;52.414;9.784;2023-03-08T05:27:40;1.70;99.90
6252;DHT22;3159;52.414;9.784;2023-03-08T05:30:09;1.40;99.90
6252;DHT22;3159;52.414;9.784;2023-03-08T05:32:36;1.40;99.90
6252;DHT22;3159;52.414;9.784;2023-03-08T05:35:03;1.60;99.90
6252;DHT22;3159;52.414;9.784;2023-03-08T05:37:30;1.50;99.90
6252;DHT22;3159;52.414;9.784;2023-03-08T05:39:57;1.60;99.90
6252;DHT22;3159;52.414;9.784;2023-03-08T05:42:24;1.80;99.90
6252;DHT22;3159;52.414;9.784;2023-03-08T05:44:51;1.80;99.90
6252;DHT22;3159;52.414;9.784;2023-03-08T05:47:20;1.90;99.90
6252;DHT22;3159;52.414;9.784;2023-03-08T05:49:46;2.00;99.90
6252;DHT22;3159;52.414;9.784;2023-03-08T05:52:13;2.10;99.90
6252;DHT22;3159;52.414;9.784;2023-03-08T05:54:40;1.90;99.90
6252;DHT22;3159;52.414;9.784;2023-03-08T05:57:07;2.00;99.90
6252;DHT22;3159;52.414;9.784;2023-03-08T05:59:33;1.70;99.90
6252;DHT22;3159;52.414;9.784;2023-03-08T06:02:00;1.90;99.90
6252;DHT22;3159;52.414;9.784;2023-03-08T06:04:28;2.00;99.90
6252;DHT22;3159;52.414;9.784;2023-03-08T06:06:55;1.90;99.90
6252;DHT22;3159;52.414;9.784;2023-03-08T06:09:22;1.90;99.90
6252;DHT22;3159;52.414;9.784;2023-03-08T06:11:49;1.90;99.90
6252;DHT22;3159;52.414;9.784;2023-03-08T06:14:15;1.90;99.90
6252;DHT22;3159;52.414;9.784;2023-03-08T06:16:42;2.00;99.90
6252;DHT22;3159;52.414;9.784;2023-03-08T06:19:12;2.10;99.90
6252;DHT22;3159;52.414;9.784;2023-03-08T06:21:40;2.10;99.90
6252;DHT22;3159;52.414;9.784;2023-03-08T06:24:08;2.10;99.90
6252;DHT22;3159;52.414;9.784;2023-03-08T06:26:35;2.10;99.90
6252;DHT22;3159;52.414;9.784;2023-03-08T06:29:02;2.00;99.90
6252;DHT22;3159;52.414;9.784;2023-03-08T06:31:29;2.00;99.90
6252;DHT22;3159;52.414;9.784;2023-03-08T06:33:55;2.00;99.90
6252;DHT22;3159;52.414;9.784;2023-03-08T06:36:22;2.00;99.90
6252;DHT22;3159;52.414;9.784;2023-03-08T06:38:50;1.90;99.90
6252;DHT22;3159;52.414;9.784;2023-03-08T06:41:18;1.80;99.90
6252;DHT22;3159;52.414;9.784;2023-03-08T06:43:46;1.50;99.90
6252;DHT22;3159;52.414;9.784;2023-03-08T06:46:14;1.60;99.90
6252;DHT22;3159;52.414;9.784;2023-03-08T06:48:42;1.60;99.90
6252;DHT22;3159;52.414;9.784;2023-03-08T06:51:09;1.70;99.90
6252;DHT22;3159;52.414;9.784;2023-03-08T06:53:36;1.70;99.90
6252;DHT22;3159;52.414;9.784;2023-03-08T06:56:06;1.80;99.90
6252;DHT22;3159;52.414;9.784;2023-03-08T06:58:34;1.90;99.90
6252;DHT22;3159;52.414;9.784;2023-03-08T07:01:01;1.80;99.90
6252;DHT22;3159;52.414;9.784;2023-03-08T07:03:29;1.90;99.90
6252;DHT22;3159;52.414;9.784;2023-03-08T07:05:57;2.10;99.90
6252;DHT22;3159;52.414;9.784;2023-03-08T07:08:25;2.10;99.90
6252;DHT22;3159;52.414;9.784;2023-03-08T07:10:52;1.90;99.90
6252;DHT22;3159;52.414;9.784;2023-03-08T07:13:20;1.90;99.90
6252;DHT22;3159;52.414;9.784;2023-03-08T07:15:48;2.00;99.90
6252;DHT22;3159;52.414;9.784;2023-03-08T07:18:15;1.90;99.90
6252;DHT22;3159;52.414;9.784;2023-03-08T07:20:41;1.90;99.90
6252;DHT22;3159;52.414;9.784;2023-03-08T07:23:08;1.90;99.90
6252;DHT22;3159;52.414;9.784;2023-03-08T07:25:37;1.90;99.90
6252;DHT22;3159;52.414;9.784;2023-03-08T07:28:04;1.90;99.90
6252;DHT22;3159;52.414;9.784;2023-03-08T07:30:33;1.90;99.90
6252;DHT22;3159;52.414;9.784;2023-03-08T07:32:59;2.00;99.90
6252;DHT22;3159;52.414;9.784;2023-03-08T07:35:26;2.10;99.90
6252;DHT22;3159;52.414;9.784;2023-03-08T07:37:53;2.30;99.90
6252;DHT22;3159;52.414;9.784;2023-03-08T07:40:20;2.30;99.90
6252;DHT22;3159;52.414;9.784;2023-03-08T07:42:47;2.30;99.90
6252;DHT22;3159;52.414;9.784;2023-03-08T07:45:14;2.10;99.90
6252;DHT22;3159;52.414;9.784;2023-03-08T07:47:42;2.00;99.90
6252;DHT22;3159;52.414;9.784;2023-03-08T07:50:10;2.10;99.90
6252;DHT22;3159;52.414;9.784;2023-03-08T07:52:37;2.10;99.90
6252;DHT22;3159;52.414;9.784;2023-03-08T07:55:04;2.20;99.90
6252;DHT22;3159;52.414;9.784;2023-03-08T07:57:31;2.10;99.90
6252;DHT22;3159;52.414;9.784;2023-03-08T07:59:58;2.30;99.90
6252;DHT22;3159;52.414;9.784;2023-03-08T08:02:25;2.30;99.90
6252;DHT22;3159;52.414;9.784;2023-03-08T08:04:53;2.40;99.90
6252;DHT22;3159;52.414;9.784;2023-03-08T08:07:20;2.10;99.90
6252;DHT22;3159;52.414;9.784;2023-03-08T08:09:47;2.30;99.90
6252;DHT22;3159;52.414;9.784;2023-03-08T08:12:13;2.30;99.90
6252;DHT22;3159;52.414;9.784;2023-03-08T08:14:40;2.40;99.90
6252;DHT22;3159;52.414;9.784;2023-03-08T08:17:07;2.20;99.90
6252;DHT22;3159;52.414;9.784;2023-03-08T08:19:34;2.20;99.90
6252;DHT22;3159;52.414;9.784;2023-03-08T08:22:03;2.20;99.90
6252;DHT22;3159;52.414;9.784;2023-03-08T08:24:30;2.40;99.90
6252;DHT22;3159;52.414;9.784;2023-03-08T08:26:57;2.40;99.90
6252;DHT22;3159;52.414;9.784;2023-03-08T08:29:24;2.50;99.90
6252;DHT22;3159;52.414;9.784;2023-03-08T08:31:51;2.40;99.90
6252;DHT22;3159;52.414;9.784;2023-03-08T08:34:18;2.40;99.90
6252;DHT22;3159;52.414;9.784;2023-03-08T08:36:45;2.20;99.90
6252;DHT22;3159;52.414;9.784;2023-03-08T08:39:14;2.50;99.90
6252;DHT22;3159;52.414;9.784;2023-03-08T08:41:40;2.80;99.90
6252;DHT22;3159;52.414;9.784;2023-03-08T08:44:07;2.80;99.90
6252;DHT22;3159;52.414;9.784;2023-03-08T08:46:34;2.50;99.90
6252;DHT22;3159;52.414;9.784;2023-03-08T08:49:01;2.20;99.90
6252;DHT22;3159;52.414;9.784;2023-03-08T08:51:29;2.30;99.90
6252;DHT22;3159;52.414;9.784;2023-03-08T08:53:56;2.40;99.90
6252;DHT22;3159;52.414;9.784;2023-03-08T08:56:26;2.60;99.90
6252;DHT22;3159;52.414;9.784;2023-03-08T08:58:53;2.50;99.90
6252;DHT22;3159;52.414;9.784;2023-03-08T09:01:22;2.40;99.90
6252;DHT22;3159;52.414;9.784;2023-03-08T09:03:49;2.40;99.90
6252;DHT22;3159;52.414;9.784;2023-03-08T09:06:18;2.40;99.90
6252;DHT22;3159;52.414;9.784;2023-03-08T09:08:48;2.50;99.90
6252;DHT22;3159;52.414;9.784;2023-03-08T09:11:15;2.60;99.90
6252;DHT22;3159;52.414;9.784;2023-03-08T09:13:43;2.60;99.90
6252;DHT22;3159;52.414;9.784;2023-03-08T09:16:17;2.60;99.90
6252;DHT22;3159;52.414;9.784;2023-03-08T09:18:44;2.50;99.90
6252;DHT22;3159;52.414;9.784;2023-03-08T09:21:10;2.50;99.90
6252;DHT22;3159;52.414;9.784;2023-03-08T09:23:38;2.50;99.90
6252;DHT22;3159;52.414;9.784;2023-03-08T09:26:05;2.70;99.90
6252;DHT22;3159;52.414;9.784;2023-03-08T09:28:32;2.80;99.90
6252;DHT22;3159;52.414;9.784;2023-03-08T09:31:05;2.80;99.90
6252;DHT22;3159;52.414;9.784;2023-03-08T09:33:36;2.70;99.90
6252;DHT22;3159;52.414;9.784;2023-03-08T09:36:03;2.80;99.90
6252;DHT22;3159;52.414;9.784;2023-03-08T09:38:30;2.90;99.90
6252;DHT22;3159;52.414;9.784;2023-03-08T09:41:05;2.80;99.90
6252;DHT22;3159;52.414;9.784;2023-03-08T09:43:44;2.90;99.90
6252;DHT22;3159;52.414;9.784;2023-03-08T09:46:17;2.90;99.90
6252;DHT22;3159;52.414;9.784;2023-03-08T09:48:48;2.90;99.90
6252;DHT22;3159;52.414;9.784;2023-03-08T09:51:17;2.90;99.90
6252;DHT22;3159;52.414;9.784;2023-03-08T09:53:49;3.00;99.90
6252;DHT22;3159;52.414;9.784;2023-03-08T09:56:22;3.10;99.90
6252;DHT22;3159;52.414;9.784;2023-03-08T09:58:54;3.10;99.90
6252;DHT22;3159;52.414;9.784;2023-03-08T10:01:32;3.10;99.90
6252;DHT22;3159;52.414;9.784;2023-03-08T10:04:20;3.10;99.90
6252;DHT22;3159;52.414;9.784;2023-03-08T10:07:01;3.10;99.90
6252;DHT22;3159;52.414;9.784;2023-03-08T10:09:34;3.20;99.90
6252;DHT22;3159;52.414;9.784;2023-03-08T10:12:14;3.10;99.90
6252;DHT22;3159;52.414;9.784;2023-03-08T10:14:48;3.30;99.90
6252;DHT22;3159;52.414;9.784;2023-03-08T10:17:19;3.30;99.90
6252;DHT22;3159;52.414;9.784;2023-03-08T10:19:52;3.30;99.90
6252;DHT22;3159;52.414;9.784;2023-03-08T10:22:25;3.50;99.90
6252;DHT22;3159;52.414;9.784;2023-03-08T10:24:57;3.30;99.90
6252;DHT22;3159;52.414;9.784;2023-03-08T10:27:27;3.00;99.90
6252;DHT22;3159;52.414;9.784;2023-03-08T10:29:56;3.20;99.90
6252;DHT22;3159;52.414;9.784;2023-03-08T10:32:26;3.20;99.90
6252;DHT22;3159;52.414;9.784;2023-03-08T10:34:59;3.30;99.90
6252;DHT22;3159;52.414;9.784;2023-03-08T10:37:30;3.40;99.90
6252;DHT22;3159;52.414;9.784;2023-03-08T10:40:00;3.30;99.90
6252;DHT22;3159;52.414;9.784;2023-03-08T10:42:30;3.40;99.90
6252;DHT22;3159;52.414;9.784;2023-03-08T10:44:59;3.40;99.90
6252;DHT22;3159;52.414;9.784;2023-03-08T10:47:31;3.20;99.90
6252;DHT22;3159;52.414;9.784;2023-03-08T10:50:13;3.20;99.90
6252;DHT22;3159;52.414;9.784;2023-03-08T10:52:41;3.20;99.90
6252;DHT22;3159;52.414;9.784;2023-03-08T10:55:11;3.30;99.90
6252;DHT22;3159;52.414;9.784;2023-03-08T10:57:40;3.50;99.90
6252;DHT22;3159;52.414;9.784;2023-03-08T11:00:32;3.50;99.90
6252;DHT22;3159;52.414;9.784;2023-03-08T11:03:12;3.20;99.90
6252;DHT22;3159;52.414;9.784;2023-03-08T11:05:39;3.40;99.90
6252;DHT22;3159;52.414;9.784;2023-03-08T11:08:18;3.40;99.90
6252;DHT22;3159;52.414;9.784;2023-03-08T11:10:45;3.40;99.90
6252;DHT22;3159;52.414;9.784;2023-03-08T11:13:21;3.40;99.90
6252;DHT22;3159;52.414;9.784;2023-03-08T11:15:55;3.50;99.90
6252;DHT22;3159;52.414;9.784;2023-03-08T11:18:36;3.40;99.90
6252;DHT22;3159;52.414;9.784;2023-03-08T11:21:10;3.60;99.90
6252;DHT22;3159;52.414;9.784;2023-03-08T11:23:43;3.60;99.90
6252;DHT22;3159;52.414;9.784;2023-03-08T11:26:18;3.60;99.90
6252;DHT22;3159;52.414;9.784;2023-03-08T11:29:05;3.80;99.90
6252;DHT22;3159;52.414;9.784;2023-03-08T11:31:40;3.80;99.90
6252;DHT22;3159;52.414;9.784;2023-03-08T11:37:11;3.80;99.90
6252;DHT22;3159;52.414;9.784;2023-03-08T11:39:44;4.00;99.90
6252;DHT22;3159;52.414;9.784;2023-03-08T11:42:19;4.20;99.90
6252;DHT22;3159;52.414;9.784;2023-03-08T11:48:07;4.20;99.90
6252;DHT22;3159;52.414;9.784;2023-03-08T11:50:40;3.90;99.90
6252;DHT22;3159;52.414;9.784;2023-03-08T11:53:17;4.00;99.90
6252;DHT22;3159;52.414;9.784;2023-03-08T11:55:57;3.90;99.90
6252;DHT22;3159;52.414;9.784;2023-03-08T11:58:30;3.80;99.90
6252;DHT22;3159;52.414;9.784;2023-03-08T12:01:00;3.90;99.90
6252;DHT22;3159;52.414;9.784;2023-03-08T12:03:30;3.90;99.90
6252;DHT22;3159;52.414;9.784;2023-03-08T12:06:04;4.00;99.90
6252;DHT22;3159;52.414;9.784;2023-03-08T12:08:40;4.00;99.90
6252;DHT22;3159;52.414;9.784;2023-03-08T12:11:12;3.80;99.90
6252;DHT22;3159;52.414;9.784;2023-03-08T12:13:45;3.80;99.90
6252;DHT22;3159;52.414;9.784;2023-03-08T12:16:16;3.40;99.90
6252;DHT22;3159;52.414;9.784;2023-03-08T12:18:50;3.90;99.90
6252;DHT22;3159;52.414;9.784;2023-03-08T12:21:29;4.00;99.90
6252;DHT22;3159;52.414;9.784;2023-03-08T12:24:07;4.00;99.90
6252;DHT22;3159;52.414;9.784;2023-03-08T12:26:42;3.90;99.90
6252;DHT22;3159;52.414;9.784;2023-03-08T12:29:14;3.90;99.90
6252;DHT22;3159;52.414;9.784;2023-03-08T12:31:44;3.60;99.90
6252;DHT22;3159;52.414;9.784;2023-03-08T12:34:13;3.80;99.90
6252;DHT22;3159;52.414;9.784;2023-03-08T12:36:43;3.70;99.90
6252;DHT22;3159;52.414;9.784;2023-03-08T12:39:25;3.40;99.90
6252;DHT22;3159;52.414;9.784;2023-03-08T12:42:00;3.20;99.90
6252;DHT22;3159;52.414;9.784;2023-03-08T12:44:28;3.10;99.90
6252;DHT22;3159;52.414;9.784;2023-03-08T12:46:57;3.20;99.90
6252;DHT22;3159;52.414;9.784;2023-03-08T12:49:26;3.30;99.90
6252;DHT22;3159;52.414;9.784;2023-03-08T12:51:59;3.00;99.90
6252;DHT22;3159;52.414;9.784;2023-03-08T12:54:29;3.10;99.90
6252;DHT22;3159;52.414;9.784;2023-03-08T12:56:57;3.30;99.90
6252;DHT22;3159;52.414;9.784;2023-03-08T12:59:31;3.10;99.90
6252;DHT22;3159;52.414;9.784;2023-03-08T13:02:02;3.20;99.90
6252;DHT22;3159;52.414;9.784;2023-03-08T13:04:31;3.00;99.90
6252;DHT22;3159;52.414;9.784;2023-03-08T13:07:21;3.20;99.90
6252;DHT22;3159;52.414;9.784;2023-03-08T13:09:54;3.20;99.90
6252;DHT22;3159;52.414;9.784;2023-03-08T13:12:31;3.30;99.90
6252;DHT22;3159;52.414;9.784;2023-03-08T13:15:20;3.00;99.90
6252;DHT22;3159;52.414;9.784;2023-03-08T13:17:50;3.10;99.90
6252;DHT22;3159;52.414;9.784;2023-03-08T13:20:20;3.10;99.90
6252;DHT22;3159;52.414;9.784;2023-03-08T13:22:59;3.10;99.90
6252;DHT22;3159;52.414;9.784;2023-03-08T13:25:43;3.10;99.90
6252;DHT22;3159;52.414;9.784;2023-03-08T13:28:13;3.10;99.90
6252;DHT22;3159;52.414;9.784;2023-03-08T13:30:45;3.10;99.90
6252;DHT22;3159;52.414;9.784;2023-03-08T13:33:16;2.80;99.90
6252;DHT22;3159;52.414;9.784;2023-03-08T13:35:53;2.70;99.90
6252;DHT22;3159;52.414;9.784;2023-03-08T13:38:23;2.90;99.90
6252;DHT22;3159;52.414;9.784;2023-03-08T13:40:51;2.80;99.90
6252;DHT22;3159;52.414;9.784;2023-03-08T13:43:20;2.80;99.90
6252;DHT22;3159;52.414;9.784;2023-03-08T13:45:47;2.80;99.90
6252;DHT22;3159;52.414;9.784;2023-03-08T13:48:15;2.90;99.90
6252;DHT22;3159;52.414;9.784;2023-03-08T13:50:43;2.70;99.90
6252;DHT22;3159;52.414;9.784;2023-03-08T13:53:16;2.60;99.90
6252;DHT22;3159;52.414;9.784;2023-03-08T13:55:47;2.70;99.90
6252;DHT22;3159;52.414;9.784;2023-03-08T13:58:23;2.60;99.90
6252;DHT22;3159;52.414;9.784;2023-03-08T14:00:58;2.80;99.90
6252;DHT22;3159;52.414;9.784;2023-03-08T14:03:26;3.00;99.90
6252;DHT22;3159;52.414;9.784;2023-03-08T14:05:53;2.80;99.90
6252;DHT22;3159;52.414;9.784;2023-03-08T14:08:22;2.80;99.90
6252;DHT22;3159;52.414;9.784;2023-03-08T14:10:53;2.80;99.90
6252;DHT22;3159;52.414;9.784;2023-03-08T14:13:24;2.70;99.90
6252;DHT22;3159;52.414;9.784;2023-03-08T14:15:53;2.60;99.90
6252;DHT22;3159;52.414;9.784;2023-03-08T14:18:22;2.60;99.90
6252;DHT22;3159;52.414;9.784;2023-03-08T14:21:12;2.60;99.90
6252;DHT22;3159;52.414;9.784;2023-03-08T14:23:41;2.50;99.90
6252;DHT22;3159;52.414;9.784;2023-03-08T14:26:26;2.70;99.90
6252;DHT22;3159;52.414;9.784;2023-03-08T14:29:16;2.50;99.90
6252;DHT22;3159;52.414;9.784;2023-03-08T14:31:58;2.40;99.90
6252;DHT22;3159;52.414;9.784;2023-03-08T14:34:27;2.50;99.90
6252;DHT22;3159;52.414;9.784;2023-03-08T14:37:00;2.60;99.90
6252;DHT22;3159;52.414;9.784;2023-03-08T14:39:29;2.70;99.90
6252;DHT22;3159;52.414;9.784;2023-03-08T14:41:57;2.60;99.90
6252;DHT22;3159;52.414;9.784;2023-03-08T14:44:27;2.50;99.90
6252;DHT22;3159;52.414;9.784;2023-03-08T14:46:54;2.50;99.90
6252;DHT22;3159;52.414;9.784;2023-03-08T14:49:25;2.40;99.90
6252;DHT22;3159;52.414;9.784;2023-03-08T14:51:53;2.30;99.90
6252;DHT22;3159;52.414;9.784;2023-03-08T14:54:31;2.40;99.90
6252;DHT22;3159;52.414;9.784;2023-03-08T14:57:07;2.40;99.90
6252;DHT22;3159;52.414;9.784;2023-03-08T14:59:39;2.40;99.90
6252;DHT22;3159;52.414;9.784;2023-03-08T15:02:10;2.40;99.90
6252;DHT22;3159;52.414;9.784;2023-03-08T15:04:37;2.50;99.90
6252;DHT22;3159;52.414;9.784;2023-03-08T15:07:04;2.50;99.90
6252;DHT22;3159;52.414;9.784;2023-03-08T15:09:31;2.50;99.90
6252;DHT22;3159;52.414;9.784;2023-03-08T15:11:58;2.70;99.90
6252;DHT22;3159;52.414;9.784;2023-03-08T15:14:27;2.70;99.90
6252;DHT22;3159;52.414;9.784;2023-03-08T15:16:55;2.50;99.90
6252;DHT22;3159;52.414;9.784;2023-03-08T15:19:22;2.50;99.90
6252;DHT22;3159;52.414;9.784;2023-03-08T15:21:49;2.50;99.90
6252;DHT22;3159;52.414;9.784;2023-03-08T15:24:17;2.40;99.90
6252;DHT22;3159;52.414;9.784;2023-03-08T15:26:45;2.40;99.90
6252;DHT22;3159;52.414;9.784;2023-03-08T15:29:24;2.50;99.90
6252;DHT22;3159;52.414;9.784;2023-03-08T15:31:53;2.60;99.90
6252;DHT22;3159;52.414;9.784;2023-03-08T15:34:20;2.60;99.90
6252;DHT22;3159;52.414;9.784;2023-03-08T15:36:48;2.60;99.90
6252;DHT22;3159;52.414;9.784;2023-03-08T15:39:15;2.50;99.90
6252;DHT22;3159;52.414;9.784;2023-03-08T15:41:42;2.50;99.90
6252;DHT22;3159;52.414;9.784;2023-03-08T15:44:09;2.60;99.90
6252;DHT22;3159;52.414;9.784;2023-03-08T15:46:36;2.60;99.90
6252;DHT22;3159;52.414;9.784;2023-03-08T15:49:04;2.60;99.90
6252;DHT22;3159;52.414;9.784;2023-03-08T15:51:33;2.50;99.90
6252;DHT22;3159;52.414;9.784;2023-03-08T15:54:00;2.50;99.90
6252;DHT22;3159;52.414;9.784;2023-03-08T15:56:27;2.30;99.90
6252;DHT22;3159;52.414;9.784;2023-03-08T15:58:54;2.30;99.90
6252;DHT22;3159;52.414;9.784;2023-03-08T16:01:23;2.20;99.90
6252;DHT22;3159;52.414;9.784;2023-03-08T16:03:51;2.30;99.90
6252;DHT22;3159;52.414;9.784;2023-03-08T16:06:20;2.40;99.90
6252;DHT22;3159;52.414;9.784;2023-03-08T16:08:48;2.60;99.90
6252;DHT22;3159;52.414;9.784;2023-03-08T16:11:16;2.60;99.90
6252;DHT22;3159;52.414;9.784;2023-03-08T16:13:47;2.60;99.90
6252;DHT22;3159;52.414;9.784;2023-03-08T16:16:14;2.50;99.90
6252;DHT22;3159;52.414;9.784;2023-03-08T16:18:41;2.50;99.90
6252;DHT22;3159;52.414;9.784;2023-03-08T16:21:09;2.60;99.90
6252;DHT22;3159;52.414;9.784;2023-03-08T16:23:38;2.60;99.90
6252;DHT22;3159;52.414;9.784;2023-03-08T16:26:07;2.70;99.90
6252;DHT22;3159;52.414;9.784;2023-03-08T16:28:34;2.80;99.90
6252;DHT22;3159;52.414;9.784;2023-03-08T16:31:02;2.70;99.90
6252;DHT22;3159;52.414;9.784;2023-03-08T16:33:29;2.60;99.90
6252;DHT22;3159;52.414;9.784;2023-03-08T16:35:56;2.60;99.90